createdAt,value
2023-01-24T00:01:05.749Z,16.53
2023-01-24T00:03:32.671Z,20.37
2023-01-24T00:05:59.655Z,19.23
2023-01-24T00:08:26.576Z,20.07
2023-01-24T00:11:03.821Z,21.00
2023-01-24T00:13:31.204Z,24.10
2023-01-24T00:16:20.799Z,20.23
2023-01-24T00:18:49.521Z,21.20
2023-01-24T00:21:23.034Z,19.90
2023-01-24T00:23:53.667Z,22.40
2023-01-24T00:26:23.275Z,27.13
2023-01-24T00:28:50.670Z,23.70
2023-01-24T00:31:18.645Z,19.00
2023-01-24T00:33:45.633Z,12.97
2023-01-24T00:36:13.670Z,12.00
2023-01-24T00:38:40.772Z,8.83
2023-01-24T00:41:07.717Z,8.17
2023-01-24T00:43:34.677Z,6.07
2023-01-24T00:46:01.836Z,5.27
2023-01-24T00:48:28.786Z,5.03
2023-01-24T00:50:55.771Z,4.83
2023-01-24T00:53:22.989Z,5.40
2023-01-24T00:55:50.038Z,4.90
2023-01-24T00:58:17.148Z,4.40
2023-01-24T01:00:44.435Z,5.80
2023-01-24T01:03:15.767Z,5.23
2023-01-24T01:05:43.792Z,6.00
2023-01-24T01:08:11.526Z,9.13
2023-01-24T01:10:39.107Z,11.83
2023-01-24T01:13:09.179Z,12.20
2023-01-24T01:15:36.126Z,11.57
2023-01-24T01:18:04.334Z,15.00
2023-01-24T01:20:31.278Z,12.23
2023-01-24T01:22:58.200Z,15.00
2023-01-24T01:25:25.121Z,12.73
2023-01-24T01:27:52.120Z,12.33
2023-01-24T01:30:19.445Z,14.17
2023-01-24T01:32:47.204Z,10.33
2023-01-24T01:35:14.215Z,11.13
2023-01-24T01:37:41.207Z,13.00
2023-01-24T01:40:09.469Z,13.87
2023-01-24T01:42:48.393Z,8.83
2023-01-24T01:45:53.037Z,9.20
2023-01-24T01:48:26.673Z,8.87
2023-01-24T01:51:19.920Z,9.53
2023-01-24T01:54:00.898Z,10.20
2023-01-24T01:56:49.179Z,11.33
2023-01-24T01:59:44.035Z,12.47
2023-01-24T02:02:12.633Z,9.83
2023-01-24T02:04:46.672Z,13.00
2023-01-24T02:07:40.838Z,12.07
2023-01-24T02:10:08.431Z,8.37
2023-01-24T02:12:46.834Z,9.83
2023-01-24T02:15:38.528Z,9.90
2023-01-24T02:18:08.373Z,10.00
2023-01-24T02:20:43.758Z,11.57
2023-01-24T02:23:32.185Z,12.30
2023-01-24T02:26:10.328Z,11.33
2023-01-24T02:28:38.903Z,13.90
2023-01-24T02:31:06.576Z,13.70
2023-01-24T02:33:35.046Z,13.53
2023-01-24T02:36:23.169Z,11.10
2023-01-24T02:39:00.251Z,14.53
2023-01-24T02:41:38.205Z,15.00
2023-01-24T02:44:10.936Z,14.50
2023-01-24T02:46:38.682Z,14.07
2023-01-24T02:49:11.249Z,10.90
2023-01-24T02:51:57.446Z,13.33
2023-01-24T02:54:24.395Z,11.03
2023-01-24T02:57:09.613Z,14.17
2023-01-24T02:59:36.483Z,12.77
2023-01-24T03:02:03.418Z,10.13
2023-01-24T03:04:30.307Z,11.43
2023-01-24T03:06:57.183Z,10.70
2023-01-24T03:09:34.339Z,10.93
2023-01-24T03:12:23.244Z,11.20
2023-01-24T03:15:08.489Z,10.97
2023-01-24T03:17:54.282Z,12.13
2023-01-24T03:20:39.348Z,11.50
2023-01-24T03:23:24.660Z,10.87
2023-01-24T03:26:16.744Z,10.70
2023-01-24T03:29:02.350Z,12.10
2023-01-24T03:31:48.636Z,10.80
2023-01-24T03:34:31.315Z,9.67
2023-01-24T03:36:58.486Z,11.87
2023-01-24T03:39:44.591Z,11.17
2023-01-24T03:42:11.690Z,11.70
2023-01-24T03:44:38.872Z,12.43
2023-01-24T03:47:06.067Z,10.23
2023-01-24T03:49:51.349Z,12.60
2023-01-24T03:52:30.587Z,11.53
2023-01-24T03:54:59.506Z,10.73
2023-01-24T03:57:28.270Z,10.27
2023-01-24T03:59:55.554Z,10.93
2023-01-24T04:02:23.743Z,10.60
2023-01-24T04:05:08.940Z,9.43
2023-01-24T04:07:35.898Z,12.37
2023-01-24T04:10:03.418Z,10.37
2023-01-24T04:12:30.377Z,9.40
2023-01-24T04:14:57.328Z,10.80
2023-01-24T04:17:24.407Z,9.53
2023-01-24T04:19:51.679Z,10.37
2023-01-24T04:22:19.125Z,10.67
2023-01-24T04:24:46.556Z,11.53
2023-01-24T04:27:14.021Z,12.03
2023-01-24T04:29:41.003Z,13.33
2023-01-24T04:32:08.791Z,10.17
2023-01-24T04:34:35.796Z,9.60
2023-01-24T04:37:02.940Z,10.50
2023-01-24T04:39:29.989Z,9.60
2023-01-24T04:41:56.922Z,10.80
2023-01-24T04:44:23.976Z,12.77
2023-01-24T04:46:51.024Z,10.37
2023-01-24T04:49:18.411Z,9.10
2023-01-24T04:51:48.816Z,9.27
2023-01-24T04:54:15.724Z,13.10
2023-01-24T04:56:42.975Z,10.80
2023-01-24T04:59:13.055Z,9.87
2023-01-24T05:01:40.491Z,10.27
2023-01-24T05:04:07.951Z,10.20
2023-01-24T05:06:35.829Z,10.77
2023-01-24T05:09:03.604Z,10.80
2023-01-24T05:11:30.747Z,15.57
2023-01-24T05:13:57.601Z,14.33
2023-01-24T05:16:24.524Z,15.80
2023-01-24T05:18:51.563Z,12.00
2023-01-24T05:21:19.814Z,11.97
2023-01-24T05:23:54.473Z,18.33
2023-01-24T05:26:24.422Z,10.30
2023-01-24T05:28:52.302Z,10.77
2023-01-24T05:31:20.057Z,10.53
2023-01-24T05:33:47.172Z,9.80
2023-01-24T05:36:18.845Z,10.90
2023-01-24T05:38:46.640Z,8.93
2023-01-24T05:41:19.589Z,9.47
2023-01-24T05:43:47.587Z,10.83
2023-01-24T05:46:20.592Z,9.73
2023-01-24T05:48:49.019Z,9.50
2023-01-24T05:51:18.734Z,10.97
2023-01-24T05:53:48.317Z,12.93
2023-01-24T05:56:19.653Z,13.20
2023-01-24T05:58:48.546Z,10.23
2023-01-24T06:01:20.483Z,17.37
2023-01-24T06:03:51.080Z,16.13
2023-01-24T06:06:21.052Z,18.30
2023-01-24T06:08:48.878Z,13.77
2023-01-24T06:11:27.006Z,13.57
2023-01-24T06:13:57.801Z,12.93
2023-01-24T06:16:26.808Z,14.40
2023-01-24T06:18:55.406Z,14.10
2023-01-24T06:21:29.034Z,14.03
2023-01-24T06:23:56.390Z,13.43
2023-01-24T06:26:23.869Z,14.30
2023-01-24T06:28:51.344Z,15.73
2023-01-24T06:31:35.098Z,13.10
2023-01-24T06:34:46.529Z,16.10
2023-01-24T06:37:33.788Z,11.67
2023-01-24T06:40:01.144Z,15.87
2023-01-24T06:42:28.627Z,12.30
2023-01-24T06:44:55.642Z,14.50
2023-01-24T06:47:25.488Z,13.50
2023-01-24T06:49:52.419Z,14.00
2023-01-24T06:52:19.396Z,15.90
2023-01-24T06:54:46.404Z,17.57
2023-01-24T06:57:14.068Z,14.50
2023-01-24T06:59:41.357Z,14.47
2023-01-24T07:02:11.480Z,15.70
2023-01-24T07:04:38.450Z,11.97
2023-01-24T07:07:07.495Z,12.93
2023-01-24T07:09:34.406Z,14.00
2023-01-24T07:12:01.394Z,12.97
2023-01-24T07:14:28.310Z,19.50
2023-01-24T07:16:56.740Z,19.33
2023-01-24T07:19:27.165Z,23.43
2023-01-24T07:21:57.654Z,14.73
2023-01-24T07:24:29.070Z,16.00
2023-01-24T07:26:58.869Z,17.00
2023-01-24T07:29:26.158Z,20.07
2023-01-24T07:31:54.193Z,15.50
2023-01-24T07:34:22.315Z,17.43
2023-01-24T07:36:49.369Z,16.10
2023-01-24T07:39:16.619Z,18.47
2023-01-24T07:41:45.153Z,13.27
2023-01-24T07:44:12.545Z,18.70
2023-01-24T07:46:39.568Z,14.43
2023-01-24T07:49:06.789Z,17.27
2023-01-24T07:51:33.810Z,14.03
2023-01-24T07:54:00.766Z,14.97
2023-01-24T07:56:27.840Z,16.27
2023-01-24T07:58:56.509Z,14.43
2023-01-24T08:01:25.019Z,15.90
2023-01-24T08:03:58.769Z,16.20
2023-01-24T08:06:26.884Z,16.77
2023-01-24T08:08:53.859Z,16.03
2023-01-24T08:11:20.999Z,17.83
2023-01-24T08:13:48.123Z,18.70
2023-01-24T08:16:15.328Z,19.77
2023-01-24T08:18:42.539Z,18.00
2023-01-24T08:21:09.674Z,17.23
2023-01-24T08:23:36.972Z,19.50
2023-01-24T08:26:07.509Z,15.23
2023-01-24T08:28:35.020Z,20.30
2023-01-24T08:31:02.200Z,17.93
2023-01-24T08:33:29.184Z,17.50
2023-01-24T08:35:56.131Z,15.80
2023-01-24T08:38:23.879Z,16.97
2023-01-24T08:40:51.158Z,14.37
2023-01-24T08:43:18.547Z,13.67
2023-01-24T08:45:45.850Z,19.03
2023-01-24T08:48:13.018Z,27.07
2023-01-24T08:50:39.964Z,25.00
2023-01-24T08:53:06.863Z,21.80
2023-01-24T08:55:34.996Z,22.63
2023-01-24T08:58:04.866Z,21.80
2023-01-24T09:00:32.688Z,22.17
2023-01-24T09:03:02.109Z,20.67
2023-01-24T09:05:31.079Z,23.60
2023-01-24T09:07:59.640Z,15.23
2023-01-24T09:10:26.677Z,21.37
2023-01-24T09:12:53.717Z,37.27
2023-01-24T09:15:21.099Z,20.63
2023-01-24T09:17:48.420Z,22.00
2023-01-24T09:20:17.522Z,22.80
2023-01-24T09:22:44.458Z,22.73
2023-01-24T09:25:11.541Z,30.13
2023-01-24T09:27:39.080Z,25.97
2023-01-24T09:30:06.918Z,16.00
2023-01-24T09:32:33.871Z,13.70
2023-01-24T09:35:00.905Z,9.57
2023-01-24T09:37:28.028Z,6.97
2023-01-24T09:39:57.320Z,5.00
2023-01-24T09:42:43.762Z,6.07
2023-01-24T09:45:34.635Z,5.00
2023-01-24T09:48:05.907Z,5.70
2023-01-24T09:50:51.257Z,5.40
2023-01-24T09:53:25.932Z,5.00
2023-01-24T09:55:54.139Z,5.57
2023-01-24T09:58:33.967Z,5.23
2023-01-24T10:01:06.206Z,6.47
2023-01-24T10:03:34.723Z,5.80
2023-01-24T10:06:13.526Z,8.03
2023-01-24T10:09:06.446Z,8.23
2023-01-24T10:12:17.209Z,8.23
2023-01-24T10:15:57.857Z,10.37
2023-01-24T10:18:45.343Z,10.00
2023-01-24T10:21:37.436Z,6.20
2023-01-24T10:24:20.986Z,18.67
2023-01-24T10:26:51.169Z,21.57
2023-01-24T10:29:25.562Z,6.03
2023-01-24T10:32:04.853Z,5.60
2023-01-24T10:34:44.109Z,6.33
2023-01-24T10:37:10.868Z,6.63
2023-01-24T10:39:38.526Z,6.53
2023-01-24T10:42:25.061Z,12.93
2023-01-24T10:44:54.806Z,18.03
2023-01-24T10:47:49.383Z,11.80
2023-01-24T10:50:18.955Z,6.70
2023-01-24T10:52:49.837Z,5.23
2023-01-24T10:55:40.251Z,5.03
2023-01-24T10:58:45.135Z,4.73
2023-01-24T11:01:20.845Z,5.57
2023-01-24T11:03:51.033Z,4.67
2023-01-24T11:06:39.383Z,6.20
2023-01-24T11:09:21.120Z,5.80
2023-01-24T11:11:58.304Z,5.90
2023-01-24T11:14:37.847Z,9.70
2023-01-24T11:17:09.158Z,9.43
2023-01-24T11:19:41.009Z,9.63
2023-01-24T11:22:40.538Z,13.67
2023-01-24T11:25:15.830Z,9.23
2023-01-24T11:27:50.390Z,8.27
2023-01-24T11:30:23.210Z,9.30
2023-01-24T11:32:56.379Z,6.90
2023-01-24T11:35:26.355Z,6.17
2023-01-24T11:38:14.389Z,5.80
2023-01-24T11:40:44.304Z,5.17
2023-01-24T11:43:46.481Z,5.70
2023-01-24T11:46:41.447Z,8.43
2023-01-24T11:49:22.169Z,11.63
2023-01-24T11:52:29.455Z,6.47
2023-01-24T11:55:26.324Z,5.83
2023-01-24T11:58:26.863Z,11.37
2023-01-24T12:01:06.529Z,7.00
2023-01-24T12:03:57.943Z,6.80
2023-01-24T12:06:35.816Z,5.00
2023-01-24T12:09:21.452Z,7.70
2023-01-24T12:11:50.162Z,7.03
2023-01-24T12:14:45.840Z,6.40
2023-01-24T12:17:47.994Z,5.70
2023-01-24T12:20:52.588Z,5.33
2023-01-24T12:23:43.928Z,5.80
2023-01-24T12:26:26.221Z,9.20
2023-01-24T12:29:17.494Z,14.00
2023-01-24T12:31:51.819Z,8.67
2023-01-24T12:34:51.986Z,5.87
2023-01-24T12:37:28.891Z,8.00
2023-01-24T12:40:13.935Z,11.23
2023-01-24T12:43:10.565Z,9.67
2023-01-24T12:46:07.783Z,9.30
2023-01-24T12:48:49.471Z,7.90
2023-01-24T12:51:33.587Z,6.43
2023-01-24T12:54:16.686Z,6.70
2023-01-24T12:57:45.054Z,5.43
2023-01-24T13:00:20.949Z,5.77
2023-01-24T13:03:24.028Z,5.60
2023-01-24T13:06:17.917Z,6.10
2023-01-24T13:09:08.799Z,6.63
2023-01-24T13:11:47.633Z,7.90
2023-01-24T13:14:34.655Z,12.23
2023-01-24T13:17:28.900Z,6.60
2023-01-24T13:20:29.663Z,6.20
2023-01-24T13:23:23.957Z,6.00
2023-01-24T13:26:15.066Z,6.03
2023-01-24T13:29:04.488Z,6.20
2023-01-24T13:32:11.573Z,5.93
2023-01-24T13:34:55.576Z,12.57
2023-01-24T13:37:33.660Z,7.60
2023-01-24T13:40:16.988Z,6.83
2023-01-24T13:42:44.197Z,5.67
2023-01-24T13:45:32.274Z,5.87
2023-01-24T13:48:01.613Z,5.10
2023-01-24T13:50:30.528Z,6.30
2023-01-24T13:53:01.699Z,5.00
2023-01-24T13:55:30.681Z,8.03
2023-01-24T13:58:10.436Z,12.80
2023-01-24T14:00:53.452Z,7.60
2023-01-24T14:03:23.249Z,5.37
2023-01-24T14:06:00.756Z,7.23
2023-01-24T14:08:27.540Z,6.10
2023-01-24T14:11:03.749Z,10.90
2023-01-24T14:13:48.979Z,12.37
2023-01-24T14:16:25.185Z,7.07
2023-01-24T14:19:13.234Z,5.80
2023-01-24T14:21:59.803Z,6.90
2023-01-24T14:24:55.291Z,6.57
2023-01-24T14:27:52.263Z,4.73
2023-01-24T14:30:24.643Z,6.27
2023-01-24T14:32:54.714Z,6.17
2023-01-24T14:35:28.671Z,6.53
2023-01-24T14:38:15.128Z,5.77
2023-01-24T14:40:43.384Z,4.87
2023-01-24T14:43:12.621Z,5.50
2023-01-24T14:45:39.716Z,6.40
2023-01-24T14:48:15.931Z,6.67
2023-01-24T14:50:42.908Z,6.77
2023-01-24T14:53:26.767Z,7.13
2023-01-24T14:55:57.069Z,7.30
2023-01-24T14:58:27.805Z,6.60
2023-01-24T15:00:59.388Z,6.13
2023-01-24T15:03:36.103Z,5.57
2023-01-24T15:06:07.858Z,7.90
2023-01-24T15:08:35.501Z,6.03
2023-01-24T15:11:06.495Z,6.47
2023-01-24T15:13:43.372Z,8.00
2023-01-24T15:16:41.574Z,7.83
2023-01-24T15:19:19.720Z,6.63
2023-01-24T15:21:48.963Z,6.07
2023-01-24T15:24:29.055Z,5.33
2023-01-24T15:26:58.656Z,5.33
2023-01-24T15:29:52.514Z,5.80
2023-01-24T15:32:35.708Z,7.27
2023-01-24T15:35:27.569Z,7.13
2023-01-24T15:38:06.414Z,9.00
2023-01-24T15:40:35.889Z,8.40
2023-01-24T15:43:22.276Z,7.27
2023-01-24T15:46:17.651Z,7.63
2023-01-24T15:49:04.841Z,8.10
2023-01-24T15:51:37.937Z,8.30
2023-01-24T15:54:13.155Z,5.40
2023-01-24T15:56:52.380Z,7.57
2023-01-24T15:59:22.261Z,7.20
2023-01-24T16:01:49.416Z,7.07
2023-01-24T16:04:22.080Z,8.10
2023-01-24T16:06:49.967Z,10.90
2023-01-24T16:09:17.007Z,10.50
2023-01-24T16:11:48.517Z,8.47
2023-01-24T16:14:24.234Z,8.90
2023-01-24T16:16:55.558Z,8.20
2023-01-24T16:19:24.559Z,8.57
2023-01-24T16:21:52.549Z,9.00
2023-01-24T16:24:19.828Z,7.13
2023-01-24T16:26:50.721Z,7.93
2023-01-24T16:29:24.532Z,8.70
2023-01-24T16:31:51.592Z,7.53
2023-01-24T16:34:19.310Z,8.43
2023-01-24T16:36:46.854Z,11.03
2023-01-24T16:39:20.542Z,13.47
2023-01-24T16:41:52.244Z,15.37
2023-01-24T16:44:19.708Z,19.53
2023-01-24T16:46:51.295Z,15.97
2023-01-24T16:49:18.962Z,35.53
2023-01-24T16:51:50.367Z,47.47
2023-01-24T16:54:17.320Z,20.50
2023-01-24T16:56:45.881Z,19.50
2023-01-24T16:59:12.841Z,19.40
2023-01-24T17:01:41.233Z,22.10
2023-01-24T17:04:08.530Z,24.07
2023-01-24T17:06:35.481Z,22.20
2023-01-24T17:09:06.472Z,19.20
2023-01-24T17:11:33.411Z,19.83
2023-01-24T17:14:00.367Z,19.87
2023-01-24T17:16:27.585Z,18.17
2023-01-24T17:18:54.555Z,18.80
2023-01-24T17:21:21.803Z,19.07
2023-01-24T17:23:48.755Z,17.77
2023-01-24T17:26:17.637Z,21.20
2023-01-24T17:28:46.381Z,19.67
2023-01-24T17:31:20.760Z,19.37
2023-01-24T17:33:48.067Z,17.47
2023-01-24T17:36:18.156Z,20.80
2023-01-24T17:38:46.583Z,18.30
2023-01-24T17:41:16.543Z,17.27
2023-01-24T17:43:52.254Z,20.40
2023-01-24T17:46:20.210Z,25.97
2023-01-24T17:48:47.225Z,22.20
2023-01-24T17:51:18.408Z,21.07
2023-01-24T17:53:46.711Z,20.33
2023-01-24T17:56:15.556Z,21.17
2023-01-24T17:58:42.868Z,29.70
2023-01-24T18:01:10.498Z,29.97
2023-01-24T18:03:37.558Z,34.53
2023-01-24T18:06:06.602Z,30.17
2023-01-24T18:08:33.549Z,28.33
2023-01-24T18:11:11.697Z,23.43
2023-01-24T18:13:39.666Z,23.90
2023-01-24T18:16:13.339Z,32.33
2023-01-24T18:18:41.299Z,45.53
2023-01-24T18:21:10.253Z,27.30
2023-01-24T18:23:37.500Z,30.53
2023-01-24T18:26:05.137Z,22.97
2023-01-24T18:28:33.393Z,26.80
2023-01-24T18:31:00.480Z,30.67
2023-01-24T18:33:27.528Z,28.20
2023-01-24T18:35:54.425Z,27.33
2023-01-24T18:38:21.414Z,26.17
2023-01-24T18:40:50.663Z,25.47
2023-01-24T18:43:19.319Z,22.77
2023-01-24T18:45:46.218Z,27.33
2023-01-24T18:48:13.280Z,27.17
2023-01-24T18:50:40.302Z,30.27
2023-01-24T18:53:07.268Z,46.20
2023-01-24T18:55:34.273Z,32.90
2023-01-24T18:58:01.234Z,29.47
2023-01-24T19:02:54.959Z,28.80
2023-01-24T19:05:21.992Z,26.97
2023-01-24T19:07:49.077Z,31.17
2023-01-24T19:10:16.046Z,25.63
2023-01-24T19:12:42.981Z,25.63
2023-01-24T19:15:11.846Z,28.67
2023-01-24T19:17:39.354Z,37.23
2023-01-24T19:22:33.930Z,27.47
2023-01-24T19:25:00.898Z,27.17
2023-01-24T19:27:27.886Z,36.20
2023-01-24T19:29:54.851Z,30.20
2023-01-24T19:32:21.773Z,30.50
2023-01-24T19:34:48.676Z,33.10
2023-01-24T19:37:15.574Z,36.30
2023-01-24T19:39:42.488Z,37.33
2023-01-24T19:42:09.520Z,30.97
2023-01-24T19:44:36.545Z,31.23
2023-01-24T19:47:03.701Z,31.93
2023-01-24T19:49:30.669Z,34.30
2023-01-24T19:51:57.563Z,32.53
2023-01-24T19:54:24.578Z,32.20
2023-01-24T19:56:55.049Z,33.80
2023-01-24T19:59:23.553Z,36.30
2023-01-24T20:01:51.523Z,32.60
2023-01-24T20:04:24.220Z,35.00
2023-01-24T20:06:54.107Z,32.73
2023-01-24T20:09:21.863Z,26.57
2023-01-24T20:11:48.765Z,30.20
2023-01-24T20:14:15.784Z,30.73
2023-01-24T20:16:42.719Z,33.43
2023-01-24T20:19:18.555Z,34.10
2023-01-24T20:21:49.399Z,49.90
2023-01-24T20:24:16.422Z,43.40
2023-01-24T20:26:43.441Z,42.30
2023-01-24T20:29:13.505Z,37.00
2023-01-24T20:31:40.842Z,36.70
2023-01-24T20:34:08.504Z,43.13
2023-01-24T20:36:35.442Z,40.47
2023-01-24T20:39:02.354Z,36.27
2023-01-24T20:41:35.818Z,35.90
2023-01-24T20:44:03.810Z,35.33
2023-01-24T20:46:30.961Z,31.97
2023-01-24T20:49:00.995Z,37.93
2023-01-24T20:51:30.935Z,34.03
2023-01-24T20:54:00.613Z,32.20
2023-01-24T20:56:29.544Z,37.30
2023-01-24T20:58:59.168Z,43.73
2023-01-24T21:01:27.807Z,42.23
2023-01-24T21:04:00.660Z,35.50
2023-01-24T21:06:28.411Z,33.43
2023-01-24T21:08:57.159Z,34.13
2023-01-24T21:11:27.426Z,32.87
2023-01-24T21:14:06.776Z,32.10
2023-01-24T21:16:35.936Z,32.07
2023-01-24T21:19:08.130Z,36.03
2023-01-24T21:21:36.866Z,33.50
2023-01-24T21:24:14.980Z,37.10
2023-01-24T21:26:47.210Z,32.87
2023-01-24T21:29:14.799Z,25.23
2023-01-24T21:31:41.843Z,29.70
2023-01-24T21:34:09.227Z,30.03
2023-01-24T21:36:37.737Z,27.80
2023-01-24T21:39:08.231Z,29.93
2023-01-24T21:41:53.922Z,34.97
2023-01-24T21:44:31.420Z,34.87
2023-01-24T21:47:03.489Z,34.23
2023-01-24T21:49:30.744Z,35.90
2023-01-24T21:52:00.694Z,36.37
2023-01-24T21:54:33.938Z,33.10
2023-01-24T21:57:33.005Z,31.37
2023-01-24T22:00:04.110Z,29.50
2023-01-24T22:02:34.201Z,33.20
2023-01-24T22:05:01.488Z,32.20
2023-01-24T22:07:31.144Z,32.67
2023-01-24T22:10:00.187Z,30.67
2023-01-24T22:12:28.886Z,31.10
2023-01-24T22:14:56.672Z,27.70
2023-01-24T22:17:24.612Z,25.23
2023-01-24T22:19:57.824Z,29.57
2023-01-24T22:22:36.948Z,28.70
2023-01-24T22:25:36.973Z,26.70
2023-01-24T22:28:04.533Z,31.97
2023-01-24T22:30:34.465Z,28.10
2023-01-24T22:33:01.880Z,31.93
2023-01-24T22:35:29.262Z,32.53
2023-01-24T22:37:58.636Z,33.10
2023-01-24T22:40:27.316Z,31.13
2023-01-24T22:42:57.112Z,27.93
2023-01-24T22:45:28.621Z,30.77
2023-01-24T22:47:56.527Z,31.27
2023-01-24T22:50:24.527Z,34.23
2023-01-24T22:52:52.289Z,29.57
2023-01-24T22:55:19.740Z,29.40
2023-01-24T22:57:46.671Z,28.27
2023-01-24T23:00:15.007Z,31.93
2023-01-24T23:02:41.894Z,30.10
2023-01-24T23:05:09.794Z,28.87
2023-01-24T23:07:36.958Z,27.47
2023-01-24T23:10:04.256Z,32.93
2023-01-24T23:12:49.713Z,27.93
2023-01-24T23:15:35.417Z,30.13
2023-01-24T23:18:07.751Z,28.40
2023-01-24T23:20:53.016Z,28.50
2023-01-24T23:23:19.955Z,30.00
2023-01-24T23:25:46.838Z,29.43
2023-01-24T23:28:13.727Z,34.50
2023-01-24T23:30:51.172Z,29.47
2023-01-24T23:33:34.948Z,31.43
2023-01-24T23:36:02.648Z,34.63
2023-01-24T23:38:32.022Z,37.67
2023-01-24T23:40:58.929Z,33.97
2023-01-24T23:43:26.048Z,33.60
2023-01-24T23:45:53.005Z,34.50
2023-01-24T23:48:21.951Z,31.00
2023-01-24T23:51:00.280Z,36.10
2023-01-24T23:53:28.394Z,31.20
2023-01-24T23:55:56.267Z,28.13
2023-01-24T23:58:24.025Z,29.17
